KALK

Pioneer Airfield

Pioneer Airfield, Arizona, USA
METAR KALK 170956Z AUTO 09008KT 10SM CLR 01/M09 A3028 RMK AO2 SLP210 T00061094
Observed Flight Rules
Jan-17 @ 09:56 UTC (40 minutes ago) Visual Flight Rules
Wind Visibility Clouds
90° at 8 knots 10 miles
  • Clear skies
Temperatures Readings
Current 1°C / 34°F
Dewpoint -9°C / 16°F
Humidity 48%
Altimeter 30.28" Hg
Pressure 1021 hPa
Elevation 1453
METAR KALK 170956Z AUTO 09008KT 10SM CLR 01/M09 A3028 RMK AO2 SLP210 T00061094
Observed Flight Rules
Jan-17 @ 09:56 UTC
(40 minutes ago)
VFR
Wind Visibility
90° at 8 knots 10 miles
Clouds
  • Clear skies
Temperature Dewpoint
1°C / 34°F -9°C / 16°F
Humidity Altimeter Pressure
48% 30.28" Hg 1021 hPa